Time;durP1;ratioP1;P1;durP2;ratioP2;P2;SDS_P1;SDS_P2;PMS_P1;PMS_P2;Temp;Humidity;BMP_temperature;BMP_pressure;BME280_temperature;BME280_humidity;BME280_pressure;Samples;Min_cycle;Max_cycle;Signal;HPM_P1;HPM_P2
2023/03/22 00:01:40;;;;;;;5.67;4.00;;;;;;;;;;4420435;32;317282;-85
2023/03/22 00:04:07;;;;;;;4.23;3.57;;;;;;;;;;4406028;32;417700;-85
2023/03/22 00:06:33;;;;;;;3.60;3.20;;;;;;;;;;4420117;32;316663;-85
2023/03/22 00:09:02;;;;;;;3.13;2.63;;;;;;;;;;4410633;32;317525;-85
2023/03/22 00:11:28;;;;;;;3.43;2.73;;;;;;;;;;4420445;32;316952;-86
2023/03/22 00:13:57;;;;;;;4.17;3.03;;;;;;;;;;4409947;32;316977;-85
2023/03/22 00:16:24;;;;;;;7.47;4.00;;;;;;;;;;4419183;32;317732;-85
2023/03/22 00:18:51;;;;;;;5.83;4.27;;;;;;;;;;4409141;32;317123;-84
2023/03/22 00:21:18;;;;;;;6.83;4.90;;;;;;;;;;4418769;32;317285;-85
2023/03/22 00:23:45;;;;;;;6.57;4.80;;;;;;;;;;4409363;32;317300;-85
2023/03/22 00:26:14;;;;;;;6.37;5.53;;;;;;;;;;4419912;32;317734;-85
2023/03/22 00:28:42;;;;;;;6.30;4.57;;;;;;;;;;4419053;32;316462;-85
2023/03/22 00:31:09;;;;;;;8.07;5.37;;;;;;;;;;4407079;32;416482;-84
2023/03/22 00:33:37;;;;;;;8.67;4.50;;;;;;;;;;4418892;32;317667;-85
2023/03/22 00:36:07;;;;;;;6.40;3.60;;;;;;;;;;4410204;32;317284;-85
2023/03/22 00:38:35;;;;;;;5.93;4.20;;;;;;;;;;4420207;32;317238;-85
2023/03/22 00:41:08;;;;;;;6.60;4.27;;;;;;;;;;4409588;32;317176;-85
2023/03/22 00:43:39;;;;;;;6.30;4.90;;;;;;;;;;4420333;32;316875;-85
2023/03/22 00:46:07;;;;;;;6.50;4.67;;;;;;;;;;4409100;32;318553;-85
2023/03/22 00:48:34;;;;;;;9.00;3.90;;;;;;;;;;4419908;32;316710;-85
2023/03/22 00:51:01;;;;;;;4.40;3.80;;;;;;;;;;4409963;32;317281;-85
2023/03/22 00:53:28;;;;;;;5.93;3.57;;;;;;;;;;4419767;32;317362;-85
2023/03/22 00:55:55;;;;;;;3.50;3.13;;;;;;;;;;4409749;32;317689;-85
2023/03/22 00:58:22;;;;;;;7.20;3.53;;;;;;;;;;4419733;32;317271;-85
2023/03/22 01:00:51;;;;;;;3.97;3.47;;;;;;;;;;4408545;32;317189;-85
2023/03/22 01:03:18;;;;;;;5.00;3.77;;;;;;;;;;4418885;32;316805;-85
2023/03/22 01:05:45;;;;;;;6.93;4.20;;;;;;;;;;4409785;32;317204;-85
2023/03/22 01:08:13;;;;;;;7.90;4.87;;;;;;;;;;4417812;32;316482;-85
2023/03/22 01:10:41;;;;;;;10.87;4.47;;;;;;;;;;4418022;32;317295;-85
2023/03/22 01:13:09;;;;;;;8.30;5.37;;;;;;;;;;4404969;32;418801;-84
2023/03/22 01:15:37;;;;;;;6.57;4.67;;;;;;;;;;4417931;32;317003;-85
2023/03/22 01:18:06;;;;;;;6.23;4.43;;;;;;;;;;4409379;32;316407;-85
2023/03/22 01:20:33;;;;;;;6.27;4.40;;;;;;;;;;4419087;32;317642;-84
2023/03/22 01:23:00;;;;;;;8.30;4.73;;;;;;;;;;4408835;32;317330;-85
2023/03/22 01:25:26;;;;;;;6.43;5.50;;;;;;;;;;4418972;32;317454;-85
2023/03/22 01:27:53;;;;;;;8.10;5.20;;;;;;;;;;4407437;32;317061;-84
2023/03/22 01:30:20;;;;;;;6.67;5.27;;;;;;;;;;4417978;32;317487;-84
2023/03/22 01:32:47;;;;;;;6.93;5.40;;;;;;;;;;4407513;32;317268;-85
2023/03/22 01:35:15;;;;;;;6.57;5.73;;;;;;;;;;4417882;32;317388;-85
2023/03/22 01:37:42;;;;;;;8.87;5.93;;;;;;;;;;4415739;32;317125;-84
2023/03/22 01:40:10;;;;;;;8.03;6.73;;;;;;;;;;4417625;32;317383;-85
2023/03/22 01:42:37;;;;;;;8.80;6.20;;;;;;;;;;4417903;32;317551;-85
2023/03/22 01:45:32;;;;;;;7.30;5.53;;;;;;;;;;4406575;32;354430;-84
2023/03/22 01:48:02;;;;;;;6.67;5.57;;;;;;;;;;4407980;32;322141;-84
2023/03/22 01:50:31;;;;;;;7.43;5.17;;;;;;;;;;4416574;32;356531;-85
2023/03/22 01:53:00;;;;;;;7.23;5.87;;;;;;;;;;4408885;32;317876;-84
2023/03/22 01:55:27;;;;;;;6.10;5.37;;;;;;;;;;4419040;32;317276;-84
2023/03/22 01:57:54;;;;;;;7.00;5.77;;;;;;;;;;4408314;32;317819;-84
2023/03/22 02:00:24;;;;;;;8.80;6.40;;;;;;;;;;4417578;32;317142;-85
2023/03/22 02:02:52;;;;;;;7.33;5.97;;;;;;;;;;4407141;32;317627;-84
2023/03/22 02:05:21;;;;;;;13.77;6.50;;;;;;;;;;4418816;32;317381;-84
2023/03/22 02:07:50;;;;;;;9.13;6.20;;;;;;;;;;4408271;32;318480;-84
2023/03/22 02:10:19;;;;;;;8.30;7.23;;;;;;;;;;4418193;32;317340;-84
2023/03/22 02:12:58;;;;;;;8.93;6.53;;;;;;;;;;4407282;32;317415;-84
2023/03/22 02:15:29;;;;;;;7.20;5.53;;;;;;;;;;4418508;32;317361;-84
2023/03/22 02:18:10;;;;;;;8.47;6.17;;;;;;;;;;4407233;32;317502;-84
2023/03/22 02:21:07;;;;;;;6.90;6.20;;;;;;;;;;4418298;32;316663;-84
2023/03/22 02:23:56;;;;;;;9.80;7.13;;;;;;;;;;4403713;32;417177;-85
2023/03/22 02:26:50;;;;;;;6.90;4.50;;;;;;;;;;4405624;32;416201;-84
2023/03/22 02:29:25;;;;;;;4.80;4.20;;;;;;;;;;4404724;32;417650;-84
2023/03/22 02:32:26;;;;;;;3.77;3.00;;;;;;;;;;4408543;32;317208;-84
2023/03/22 02:35:31;;;;;;;4.03;3.13;;;;;;;;;;4405220;32;317107;-84
2023/03/22 02:38:20;;;;;;;2.90;2.50;;;;;;;;;;4408413;32;316896;-85
2023/03/22 02:40:52;;;;;;;4.03;2.40;;;;;;;;;;4408325;32;317124;-83
2023/03/22 02:43:29;;;;;;;5.20;2.60;;;;;;;;;;4416989;32;317159;-84
2023/03/22 02:46:04;;;;;;;2.63;2.43;;;;;;;;;;4407281;32;317122;-84
2023/03/22 02:48:35;;;;;;;3.20;2.43;;;;;;;;;;4418362;32;317532;-84
2023/03/22 02:51:07;;;;;;;2.43;1.97;;;;;;;;;;4407321;32;317104;-84
2023/03/22 02:53:40;;;;;;;3.23;2.10;;;;;;;;;;4418560;32;317283;-84
2023/03/22 02:56:13;;;;;;;2.20;2.00;;;;;;;;;;4407455;32;317767;-84
2023/03/22 02:58:44;;;;;;;2.43;2.03;;;;;;;;;;4418059;32;316440;-85
2023/03/22 03:01:16;;;;;;;4.00;2.57;;;;;;;;;;4405462;32;416988;-83
2023/03/22 03:03:46;;;;;;;3.23;2.17;;;;;;;;;;4404813;32;344380;-84
2023/03/22 03:06:17;;;;;;;16.43;7.57;;;;;;;;;;4416848;32;317283;-84
2023/03/22 03:08:49;;;;;;;16.10;8.20;;;;;;;;;;4407274;32;318561;-83
2023/03/22 03:11:17;;;;;;;9.43;4.73;;;;;;;;;;4420893;32;318585;-84
2023/03/22 03:13:47;;;;;;;3.43;2.80;;;;;;;;;;4409631;32;317207;-83
2023/03/22 03:16:16;;;;;;;5.33;3.17;;;;;;;;;;4420052;32;339349;-84
2023/03/22 03:18:50;;;;;;;4.20;3.47;;;;;;;;;;4411127;32;317171;-84
2023/03/22 03:21:31;;;;;;;3.37;2.50;;;;;;;;;;4418965;32;343972;-87
2023/03/22 03:24:11;;;;;;;5.60;3.20;;;;;;;;;;4410941;32;317313;-84
2023/03/22 03:26:47;;;;;;;5.60;3.47;;;;;;;;;;4420879;32;322000;-84
2023/03/22 03:29:21;;;;;;;13.30;5.80;;;;;;;;;;4407934;32;417166;-84
2023/03/22 03:31:52;;;;;;;10.20;5.13;;;;;;;;;;4410667;32;318372;-84
2023/03/22 03:34:26;;;;;;;13.30;4.60;;;;;;;;;;4418440;32;358489;-84
2023/03/22 03:36:57;;;;;;;13.17;6.70;;;;;;;;;;4411223;32;318296;-85
2023/03/22 03:39:28;;;;;;;16.50;7.23;;;;;;;;;;4419598;32;318197;-84
2023/03/22 03:41:57;;;;;;;14.33;6.07;;;;;;;;;;4408924;32;348417;-85
2023/03/22 03:44:24;;;;;;;6.50;3.20;;;;;;;;;;4421014;32;318098;-84
2023/03/22 03:46:53;;;;;;;5.90;3.50;;;;;;;;;;4408904;32;347744;-85
2023/03/22 03:49:23;;;;;;;4.43;3.00;;;;;;;;;;4419277;32;317206;-85
2023/03/22 03:51:52;;;;;;;3.23;2.13;;;;;;;;;;4409527;32;316662;-85
2023/03/22 03:54:19;;;;;;;3.63;2.53;;;;;;;;;;4420503;32;316478;-84
2023/03/22 03:56:47;;;;;;;4.50;2.53;;;;;;;;;;4409799;32;317429;-85
2023/03/22 03:59:15;;;;;;;6.20;3.50;;;;;;;;;;4420702;32;317519;-85
2023/03/22 04:01:48;;;;;;;4.87;2.90;;;;;;;;;;4419639;32;316665;-85
2023/03/22 04:04:16;;;;;;;4.83;3.23;;;;;;;;;;4420003;32;317112;-84
2023/03/22 04:06:43;;;;;;;8.13;4.60;;;;;;;;;;4408523;32;387212;-84
2023/03/22 04:09:10;;;;;;;6.03;4.27;;;;;;;;;;4420251;32;316474;-85
2023/03/22 04:11:37;;;;;;;5.73;4.07;;;;;;;;;;4420062;32;317348;-85
2023/03/22 04:14:04;;;;;;;9.23;4.20;;;;;;;;;;4410164;32;316604;-86
2023/03/22 04:16:32;;;;;;;8.90;4.03;;;;;;;;;;4419987;32;317231;-85
2023/03/22 04:18:59;;;;;;;10.40;8.07;;;;;;;;;;4410316;32;317074;-85
2023/03/22 04:21:26;;;;;;;12.03;6.87;;;;;;;;;;4419433;32;317964;-84
2023/03/22 04:23:54;;;;;;;9.67;6.97;;;;;;;;;;4409425;32;318099;-85
2023/03/22 04:26:21;;;;;;;16.13;10.60;;;;;;;;;;4420717;32;317235;-85
2023/03/22 04:28:48;;;;;;;27.53;12.77;;;;;;;;;;4410013;32;319549;-84
2023/03/22 04:31:14;;;;;;;32.53;14.60;;;;;;;;;;4418897;32;319234;-85
2023/03/22 04:33:45;;;;;;;19.63;9.03;;;;;;;;;;4419281;32;319342;-85
2023/03/22 04:36:14;;;;;;;11.23;5.90;;;;;;;;;;4408071;32;417012;-86
2023/03/22 04:38:41;;;;;;;11.93;6.77;;;;;;;;;;4421906;32;334642;-85
2023/03/22 04:41:09;;;;;;;12.17;6.47;;;;;;;;;;4408132;32;417855;-85
2023/03/22 04:43:38;;;;;;;10.23;5.93;;;;;;;;;;4422029;32;317447;-85
2023/03/22 04:46:08;;;;;;;10.53;7.33;;;;;;;;;;4409629;32;317926;-85
2023/03/22 04:48:36;;;;;;;9.20;5.87;;;;;;;;;;4419781;32;333440;-85
2023/03/22 04:51:05;;;;;;;7.73;4.70;;;;;;;;;;4410115;32;317496;-87
2023/03/22 04:53:37;;;;;;;7.03;5.00;;;;;;;;;;4419974;32;316458;-85
2023/03/22 04:56:05;;;;;;;10.03;5.27;;;;;;;;;;4409624;32;317245;-85
2023/03/22 04:58:33;;;;;;;8.93;5.23;;;;;;;;;;4419217;32;318163;-85
2023/03/22 05:01:00;;;;;;;8.47;5.10;;;;;;;;;;4409527;32;317111;-85
2023/03/22 05:03:27;;;;;;;9.50;5.77;;;;;;;;;;4418911;32;317283;-85
2023/03/22 05:05:55;;;;;;;8.73;5.90;;;;;;;;;;4408641;32;317252;-86
2023/03/22 05:08:24;;;;;;;8.03;5.57;;;;;;;;;;4418232;32;317050;-85
2023/03/22 05:10:52;;;;;;;10.60;6.43;;;;;;;;;;4409051;32;341765;-83
2023/03/22 05:13:18;;;;;;;10.23;7.30;;;;;;;;;;4417905;32;318124;-85
2023/03/22 05:15:46;;;;;;;10.47;6.70;;;;;;;;;;4405919;32;355064;-84
2023/03/22 05:18:13;;;;;;;12.60;7.40;;;;;;;;;;4417907;32;318232;-85
2023/03/22 05:20:40;;;;;;;11.37;6.87;;;;;;;;;;4419322;32;318248;-87
2023/03/22 05:23:08;;;;;;;11.83;6.87;;;;;;;;;;4408945;32;318156;-84
2023/03/22 05:25:37;;;;;;;12.97;7.17;;;;;;;;;;4419402;32;318194;-87
2023/03/22 05:28:04;;;;;;;12.93;8.07;;;;;;;;;;4408078;32;318165;-86
2023/03/22 05:30:31;;;;;;;17.73;8.73;;;;;;;;;;4418972;32;318683;-85
2023/03/22 05:33:02;;;;;;;14.77;7.67;;;;;;;;;;4408733;32;326039;-85
2023/03/22 05:35:29;;;;;;;10.17;7.93;;;;;;;;;;4418245;32;318166;-85
2023/03/22 05:37:56;;;;;;;11.30;7.40;;;;;;;;;;4408996;32;318268;-85
2023/03/22 05:40:23;;;;;;;13.47;7.97;;;;;;;;;;4419109;32;317457;-85
2023/03/22 05:42:52;;;;;;;9.97;6.97;;;;;;;;;;4408464;32;318538;-87
2023/03/22 05:45:20;;;;;;;12.53;7.00;;;;;;;;;;4418959;32;316924;-88
2023/03/22 05:47:47;;;;;;;13.27;8.03;;;;;;;;;;4407248;32;318152;-87
2023/03/22 05:50:16;;;;;;;10.80;6.97;;;;;;;;;;4418616;32;318524;-85
2023/03/22 05:52:44;;;;;;;18.67;9.80;;;;;;;;;;4408422;32;318045;-86
2023/03/22 05:55:12;;;;;;;19.40;10.47;;;;;;;;;;4418087;32;318493;-85
2023/03/22 05:57:39;;;;;;;22.03;12.53;;;;;;;;;;4418181;32;319127;-86
2023/03/22 06:00:15;;;;;;;26.20;14.67;;;;;;;;;;4408189;32;319670;-86
2023/03/22 06:02:42;;;;;;;19.53;12.23;;;;;;;;;;4416311;32;333976;-88
2023/03/22 06:05:10;;;;;;;17.77;11.47;;;;;;;;;;4403864;32;418465;-87
2023/03/22 06:07:37;;;;;;;16.40;10.70;;;;;;;;;;4417767;32;319168;-85
2023/03/22 06:10:06;;;;;;;17.07;11.83;;;;;;;;;;4407771;32;319458;-85
2023/03/22 06:12:33;;;;;;;13.87;10.37;;;;;;;;;;4417202;32;319214;-87
2023/03/22 06:15:00;;;;;;;16.90;9.80;;;;;;;;;;4407857;32;318609;-87
2023/03/22 06:17:28;;;;;;;15.50;11.07;;;;;;;;;;4417445;32;318449;-87
2023/03/22 06:19:55;;;;;;;14.73;10.10;;;;;;;;;;4407351;32;319304;-85
2023/03/22 06:22:22;;;;;;;12.53;10.10;;;;;;;;;;4417900;32;318713;-86
2023/03/22 06:24:50;;;;;;;15.87;10.73;;;;;;;;;;4407188;32;319142;-85
2023/03/22 06:27:17;;;;;;;12.27;9.20;;;;;;;;;;4416096;32;318735;-87
2023/03/22 06:29:48;;;;;;;13.93;10.17;;;;;;;;;;4408095;32;318254;-85
2023/03/22 06:32:15;;;;;;;15.70;10.50;;;;;;;;;;4418524;32;318503;-86
2023/03/22 06:34:43;;;;;;;18.13;10.37;;;;;;;;;;4416958;32;319223;-85
2023/03/22 06:37:10;;;;;;;14.13;10.20;;;;;;;;;;4405237;32;418026;-86
2023/03/22 06:39:37;;;;;;;26.97;19.17;;;;;;;;;;4418521;32;319108;-87
2023/03/22 06:42:04;;;;;;;21.50;15.03;;;;;;;;;;4411246;32;318710;-85
2023/03/22 06:44:30;;;;;;;21.97;14.47;;;;;;;;;;4421103;32;318576;-88
2023/03/22 06:46:57;;;;;;;20.33;13.00;;;;;;;;;;4414593;32;318883;-84
2023/03/22 06:49:25;;;;;;;20.93;14.43;;;;;;;;;;4425070;32;319553;-88
2023/03/22 06:51:53;;;;;;;28.37;14.20;;;;;;;;;;4411218;32;319324;-86
2023/03/22 06:54:21;;;;;;;22.77;17.53;;;;;;;;;;4421150;32;319602;-88
2023/03/22 06:56:48;;;;;;;22.30;14.80;;;;;;;;;;4409934;32;320070;-86
2023/03/22 06:59:14;;;;;;;13.67;9.50;;;;;;;;;;4419603;32;319157;-87
2023/03/22 07:01:41;;;;;;;17.20;14.00;;;;;;;;;;4399820;32;318498;-87
2023/03/22 07:04:08;;;;;;;25.87;17.83;;;;;;;;;;4411502;32;319326;-88
2023/03/22 07:06:35;;;;;;;23.20;12.37;;;;;;;;;;4419729;32;319367;-83
2023/03/22 07:09:03;;;;;;;28.13;16.93;;;;;;;;;;4410999;32;318580;-86
2023/03/22 07:11:30;;;;;;;23.70;15.67;;;;;;;;;;4420864;32;319265;-86
2023/03/22 07:13:57;;;;;;;31.07;16.93;;;;;;;;;;4409526;32;319480;-88
2023/03/22 07:16:23;;;;;;;24.20;17.60;;;;;;;;;;4420716;32;318684;-86
2023/03/22 07:18:50;;;;;;;27.47;17.63;;;;;;;;;;4411768;32;319228;-86
2023/03/22 07:21:17;;;;;;;18.63;13.80;;;;;;;;;;4422037;32;318653;-88
2023/03/22 07:23:44;;;;;;;13.23;9.27;;;;;;;;;;4411735;32;319280;-85
2023/03/22 07:26:13;;;;;;;10.37;7.80;;;;;;;;;;4419952;32;317557;-87
2023/03/22 07:28:43;;;;;;;11.23;8.50;;;;;;;;;;4421323;32;317781;-86
2023/03/22 07:31:11;;;;;;;13.97;10.23;;;;;;;;;;4407409;32;417439;-88
2023/03/22 07:33:38;;;;;;;13.30;9.17;;;;;;;;;;4421339;32;318417;-85
2023/03/22 07:36:06;;;;;;;14.43;10.30;;;;;;;;;;4412049;32;318290;-86
2023/03/22 07:38:33;;;;;;;16.90;11.57;;;;;;;;;;4420244;32;318631;-85
2023/03/22 07:41:00;;;;;;;17.97;12.37;;;;;;;;;;4410363;32;319276;-87
2023/03/22 07:43:28;;;;;;;23.20;14.57;;;;;;;;;;4420883;32;318471;-86
2023/03/22 07:45:55;;;;;;;24.37;16.17;;;;;;;;;;4410105;32;323235;-86
2023/03/22 07:48:23;;;;;;;25.00;18.30;;;;;;;;;;4400597;32;318735;-85
2023/03/22 07:50:50;;;;;;;27.20;20.20;;;;;;;;;;4407545;32;318541;-86
2023/03/22 07:53:17;;;;;;;31.63;22.63;;;;;;;;;;4403807;32;319268;-86
2023/03/22 07:55:44;;;;;;;44.77;30.10;;;;;;;;;;4397364;32;320745;-86
2023/03/22 07:58:10;;;;;;;43.07;28.80;;;;;;;;;;4420278;32;319690;-87
2023/03/22 08:00:39;;;;;;;36.40;24.37;;;;;;;;;;4409990;32;319239;-86
2023/03/22 08:03:05;;;;;;;30.10;18.90;;;;;;;;;;4408573;32;319408;-85
2023/03/22 08:05:32;;;;;;;34.30;23.00;;;;;;;;;;4418907;32;319129;-86
2023/03/22 08:07:59;;;;;;;32.43;22.53;;;;;;;;;;4407936;32;342503;-87
2023/03/22 08:10:26;;;;;;;46.40;29.63;;;;;;;;;;4419715;32;318892;-87
2023/03/22 08:12:53;;;;;;;37.87;26.70;;;;;;;;;;4409383;32;319163;-85
2023/03/22 08:15:19;;;;;;;37.43;26.13;;;;;;;;;;4419575;32;318534;-86
2023/03/22 08:17:48;;;;;;;48.47;31.00;;;;;;;;;;4412901;32;319319;-87
2023/03/22 08:20:17;;;;;;;43.70;28.87;;;;;;;;;;4404280;32;319464;-86
2023/03/22 08:22:44;;;;;;;36.07;25.03;;;;;;;;;;4398156;32;318418;-85
2023/03/22 08:25:11;;;;;;;38.70;24.57;;;;;;;;;;4409346;32;319428;-85
2023/03/22 08:27:38;;;;;;;37.77;22.93;;;;;;;;;;4418484;32;319305;-86
2023/03/22 08:30:07;;;;;;;39.30;21.27;;;;;;;;;;4407518;32;323967;-86
2023/03/22 08:32:34;;;;;;;29.57;20.10;;;;;;;;;;4405016;32;319176;-86
2023/03/22 08:35:05;;;;;;;34.03;21.03;;;;;;;;;;4407787;32;343025;-86
2023/03/22 08:37:32;;;;;;;32.57;18.43;;;;;;;;;;4418930;32;319456;-86
2023/03/22 08:39:59;;;;;;;30.33;18.90;;;;;;;;;;4407877;32;319216;-88
2023/03/22 08:42:26;;;;;;;24.43;17.67;;;;;;;;;;4419307;32;318539;-88
2023/03/22 08:44:53;;;;;;;31.70;17.87;;;;;;;;;;4409330;32;319066;-85
2023/03/22 08:47:20;;;;;;;26.33;20.93;;;;;;;;;;4418668;32;319273;-86
2023/03/22 08:49:46;;;;;;;31.17;20.37;;;;;;;;;;4408579;32;319312;-86
2023/03/22 08:52:15;;;;;;;31.03;21.00;;;;;;;;;;4418217;32;319334;-86
2023/03/22 08:54:41;;;;;;;26.33;19.50;;;;;;;;;;4418920;32;318432;-86
2023/03/22 08:57:09;;;;;;;28.70;19.20;;;;;;;;;;4408062;32;319201;-86
2023/03/22 08:59:35;;;;;;;27.70;16.27;;;;;;;;;;4419381;32;319403;-86
2023/03/22 09:02:02;;;;;;;23.87;14.40;;;;;;;;;;4408453;32;319203;-86
2023/03/22 09:04:29;;;;;;;22.37;14.53;;;;;;;;;;4418864;32;319267;-86
2023/03/22 09:06:56;;;;;;;27.63;16.50;;;;;;;;;;4407282;32;319373;-88
2023/03/22 09:09:24;;;;;;;21.27;16.63;;;;;;;;;;4418676;32;318461;-86
2023/03/22 09:11:51;;;;;;;23.13;16.97;;;;;;;;;;4402079;32;319271;-86
2023/03/22 09:14:18;;;;;;;24.10;15.93;;;;;;;;;;4419231;32;319560;-86
2023/03/22 09:16:45;;;;;;;23.40;15.40;;;;;;;;;;4419164;32;319504;-86
2023/03/22 09:19:12;;;;;;;19.97;14.57;;;;;;;;;;4404671;32;417729;-88
2023/03/22 09:21:39;;;;;;;23.40;15.67;;;;;;;;;;4417586;32;318572;-86
2023/03/22 09:24:07;;;;;;;22.53;16.57;;;;;;;;;;4408841;32;318747;-86
2023/03/22 09:26:35;;;;;;;27.20;17.87;;;;;;;;;;4419314;32;319217;-86
2023/03/22 09:29:02;;;;;;;26.60;17.40;;;;;;;;;;4407064;32;319282;-86
2023/03/22 09:31:29;;;;;;;26.80;18.63;;;;;;;;;;4417660;32;336892;-86
2023/03/22 09:33:56;;;;;;;24.27;15.87;;;;;;;;;;4408876;32;319289;-86
2023/03/22 09:36:22;;;;;;;27.70;19.97;;;;;;;;;;4418522;32;319078;-85
2023/03/22 09:38:49;;;;;;;24.90;13.37;;;;;;;;;;4408094;32;319379;-86
2023/03/22 09:41:22;;;;;;;10.87;8.90;;;;;;;;;;4417261;32;319304;-87
2023/03/22 09:43:52;;;;;;;20.17;11.77;;;;;;;;;;4408646;32;317590;-87
2023/03/22 09:46:29;;;;;;;13.77;8.90;;;;;;;;;;4417712;32;319169;-87
2023/03/22 09:48:57;;;;;;;10.80;7.77;;;;;;;;;;4408322;32;318393;-85
2023/03/22 09:51:33;;;;;;;12.77;8.83;;;;;;;;;;4418043;32;318556;-87
2023/03/22 09:54:00;;;;;;;15.87;11.87;;;;;;;;;;4408088;32;317596;-86
2023/03/22 09:56:30;;;;;;;15.67;10.93;;;;;;;;;;4422217;32;319394;-86
2023/03/22 09:59:05;;;;;;;13.50;9.80;;;;;;;;;;4406703;32;350688;-87
2023/03/22 10:01:40;;;;;;;9.13;7.40;;;;;;;;;;4417789;32;317364;-87
2023/03/22 10:04:20;;;;;;;12.73;8.53;;;;;;;;;;4409707;32;317501;-87
2023/03/22 10:06:50;;;;;;;14.50;10.23;;;;;;;;;;4405214;32;341514;-87
2023/03/22 10:09:24;;;;;;;13.33;9.50;;;;;;;;;;4417354;32;319502;-88
2023/03/22 10:11:59;;;;;;;12.23;9.03;;;;;;;;;;4407718;32;317364;-88
2023/03/22 10:14:33;;;;;;;7.10;5.47;;;;;;;;;;4418178;32;318599;-88
2023/03/22 10:17:05;;;;;;;6.10;4.97;;;;;;;;;;4407472;32;316609;-87
2023/03/22 10:19:39;;;;;;;9.13;6.47;;;;;;;;;;4417593;32;317414;-85
2023/03/22 10:22:06;;;;;;;11.67;7.50;;;;;;;;;;4410804;32;316469;-86
2023/03/22 10:24:35;;;;;;;13.50;6.53;;;;;;;;;;4420633;32;318216;-86
2023/03/22 10:27:03;;;;;;;10.00;6.60;;;;;;;;;;4410304;32;317550;-88
2023/03/22 10:29:38;;;;;;;14.70;9.73;;;;;;;;;;4421345;32;318135;-86
2023/03/22 10:32:14;;;;;;;21.07;15.47;;;;;;;;;;4411568;32;318592;-88
2023/03/22 10:34:42;;;;;;;20.97;16.00;;;;;;;;;;4419812;32;319084;-85
2023/03/22 10:37:13;;;;;;;16.37;11.83;;;;;;;;;;4409316;32;319363;-87
2023/03/22 10:39:45;;;;;;;10.90;7.83;;;;;;;;;;4421881;32;319157;-87
2023/03/22 10:42:15;;;;;;;11.07;9.60;;;;;;;;;;4407981;32;417080;-85
2023/03/22 10:44:48;;;;;;;14.43;8.77;;;;;;;;;;4420901;32;318223;-86
2023/03/22 10:47:17;;;;;;;9.87;7.87;;;;;;;;;;4406543;32;417485;-86
2023/03/22 10:49:48;;;;;;;19.50;15.27;;;;;;;;;;4420055;32;317612;-86
2023/03/22 10:52:39;;;;;;;24.30;16.63;;;;;;;;;;4407671;32;419952;-87
2023/03/22 10:55:10;;;;;;;27.33;18.20;;;;;;;;;;4409725;32;319472;-86
2023/03/22 10:57:38;;;;;;;25.53;18.30;;;;;;;;;;4419478;32;319417;-88
2023/03/22 11:00:10;;;;;;;20.30;15.57;;;;;;;;;;4409876;32;341289;-86
2023/03/22 11:02:50;;;;;;;30.07;18.40;;;;;;;;;;4421667;32;319488;-87
2023/03/22 11:05:24;;;;;;;16.47;12.57;;;;;;;;;;4407113;32;418763;-86
2023/03/22 11:07:51;;;;;;;18.93;12.50;;;;;;;;;;4410536;32;328123;-89
2023/03/22 11:10:26;;;;;;;21.27;11.17;;;;;;;;;;4420491;32;337640;-88
2023/03/22 11:12:55;;;;;;;16.97;10.13;;;;;;;;;;4411056;32;319179;-89
2023/03/22 11:15:32;;;;;;;14.30;10.30;;;;;;;;;;4421095;32;319156;-88
2023/03/22 11:18:01;;;;;;;10.23;7.80;;;;;;;;;;4410228;32;319588;-88
2023/03/22 11:20:28;;;;;;;18.00;11.70;;;;;;;;;;4421354;32;318239;-89
2023/03/22 11:22:56;;;;;;;21.00;11.07;;;;;;;;;;4411052;32;319249;-88
2023/03/22 11:25:27;;;;;;;8.40;6.97;;;;;;;;;;4421803;32;319135;-89
2023/03/22 11:27:56;;;;;;;12.90;7.00;;;;;;;;;;4411224;32;316909;-88
2023/03/22 11:30:24;;;;;;;18.03;6.13;;;;;;;;;;4420786;32;317503;-86
2023/03/22 11:33:09;;;;;;;6.10;4.30;;;;;;;;;;4410542;32;323094;-85
2023/03/22 11:35:38;;;;;;;7.93;5.40;;;;;;;;;;4419172;32;317027;-89
2023/03/22 11:38:06;;;;;;;12.53;7.83;;;;;;;;;;4410760;32;317174;-90
2023/03/22 11:40:35;;;;;;;11.77;7.97;;;;;;;;;;4421209;32;318232;-89
2023/03/22 11:43:15;;;;;;;10.37;5.70;;;;;;;;;;4411211;32;318221;-89
2023/03/22 11:45:46;;;;;;;17.43;5.43;;;;;;;;;;4420710;32;318497;-89
2023/03/22 11:48:18;;;;;;;12.10;6.10;;;;;;;;;;4406345;32;417317;-88
2023/03/22 11:50:46;;;;;;;10.20;6.60;;;;;;;;;;4419437;32;317274;-88
2023/03/22 11:53:16;;;;;;;9.07;5.73;;;;;;;;;;4408272;32;419331;-89
2023/03/22 11:55:43;;;;;;;8.50;5.83;;;;;;;;;;4421293;32;316770;-88
2023/03/22 11:58:24;;;;;;;5.73;4.50;;;;;;;;;;4411365;32;316484;-89
2023/03/22 12:00:54;;;;;;;7.37;5.70;;;;;;;;;;4410714;32;316455;-88
2023/03/22 12:03:26;;;;;;;6.47;5.10;;;;;;;;;;4420969;32;317446;-88
2023/03/22 12:05:53;;;;;;;6.57;4.70;;;;;;;;;;4409635;32;317173;-89
2023/03/22 12:08:28;;;;;;;5.90;5.10;;;;;;;;;;4420467;32;316539;-87
2023/03/22 12:11:01;;;;;;;4.50;4.10;;;;;;;;;;4409474;32;316664;-89
2023/03/22 12:13:37;;;;;;;7.30;5.03;;;;;;;;;;4421306;32;316322;-89
2023/03/22 12:16:06;;;;;;;5.47;4.40;;;;;;;;;;4411057;32;317220;-89
2023/03/22 12:18:41;;;;;;;6.30;5.37;;;;;;;;;;4420378;32;317381;-88
2023/03/22 12:21:10;;;;;;;15.90;6.20;;;;;;;;;;4409558;32;317066;-88
2023/03/22 12:23:37;;;;;;;9.17;6.57;;;;;;;;;;4419690;32;317593;-88
2023/03/22 12:26:07;;;;;;;8.77;6.73;;;;;;;;;;4411226;32;317204;-88
2023/03/22 12:28:39;;;;;;;6.70;6.00;;;;;;;;;;4419284;32;317103;-88
2023/03/22 12:31:10;;;;;;;7.70;5.93;;;;;;;;;;4410453;32;317321;-88
2023/03/22 12:33:43;;;;;;;9.07;6.23;;;;;;;;;;4420800;32;317288;-88
2023/03/22 12:36:15;;;;;;;14.80;7.10;;;;;;;;;;4410853;32;316346;-86
2023/03/22 12:38:48;;;;;;;10.90;6.40;;;;;;;;;;4419994;32;317383;-87
2023/03/22 12:41:18;;;;;;;9.67;6.97;;;;;;;;;;4407819;32;419574;-87
2023/03/22 12:43:52;;;;;;;11.63;7.47;;;;;;;;;;4418500;32;347043;-88
2023/03/22 12:46:23;;;;;;;25.80;19.03;;;;;;;;;;4407048;32;417108;-89
2023/03/22 12:48:55;;;;;;;43.70;33.30;;;;;;;;;;4409530;32;319178;-88
2023/03/22 12:51:22;;;;;;;12.70;9.57;;;;;;;;;;4419297;32;319215;-87
2023/03/22 12:53:52;;;;;;;10.17;5.93;;;;;;;;;;4410016;32;317618;-89
2023/03/22 12:56:23;;;;;;;10.10;7.30;;;;;;;;;;4419797;32;317825;-88
2023/03/22 12:58:53;;;;;;;9.90;6.03;;;;;;;;;;4410589;32;318261;-86
2023/03/22 13:01:25;;;;;;;6.57;5.47;;;;;;;;;;4420686;32;317000;-88
2023/03/22 13:03:56;;;;;;;9.97;7.03;;;;;;;;;;4409037;32;317494;-86
2023/03/22 13:06:33;;;;;;;11.57;6.53;;;;;;;;;;4418966;32;316335;-89
2023/03/22 13:09:14;;;;;;;6.97;5.57;;;;;;;;;;4408851;32;318426;-87
2023/03/22 13:11:41;;;;;;;14.37;7.40;;;;;;;;;;4420459;32;316525;-87
2023/03/22 13:14:14;;;;;;;9.00;8.03;;;;;;;;;;4409102;32;318146;-86
2023/03/22 13:16:52;;;;;;;14.17;9.57;;;;;;;;;;4418843;32;316834;-87
2023/03/22 13:19:33;;;;;;;10.73;9.17;;;;;;;;;;4407770;32;417197;-86
2023/03/22 13:22:15;;;;;;;12.10;9.13;;;;;;;;;;4409800;32;324418;-87
2023/03/22 13:25:07;;;;;;;14.77;10.87;;;;;;;;;;4406159;32;318248;-88
2023/03/22 13:27:36;;;;;;;20.77;13.00;;;;;;;;;;4406733;32;419722;-87
2023/03/22 13:30:07;;;;;;;30.60;18.47;;;;;;;;;;4410682;32;319087;-87
2023/03/22 13:32:36;;;;;;;20.90;13.03;;;;;;;;;;4422856;32;319533;-87
2023/03/22 13:35:20;;;;;;;10.77;9.07;;;;;;;;;;4412117;32;319166;-90
2023/03/22 13:37:49;;;;;;;39.03;23.33;;;;;;;;;;4411118;32;318233;-87
2023/03/22 13:40:28;;;;;;;11.27;8.73;;;;;;;;;;4420010;32;318275;-88
2023/03/22 13:43:10;;;;;;;73.50;43.43;;;;;;;;;;4411358;32;318378;-88
2023/03/22 13:45:56;;;;;;;51.57;31.53;;;;;;;;;;4421269;32;319716;-89
2023/03/22 13:48:31;;;;;;;16.60;13.00;;;;;;;;;;4406847;32;419129;-88
2023/03/22 13:51:10;;;;;;;8.27;6.10;;;;;;;;;;4408472;32;319254;-89
2023/03/22 13:53:40;;;;;;;10.73;7.67;;;;;;;;;;4419286;32;316439;-89
2023/03/22 13:56:12;;;;;;;12.67;8.83;;;;;;;;;;4409858;32;318818;-89
2023/03/22 13:58:51;;;;;;;40.38;24.95;;;;;;;;;;4418569;32;317553;-88
2023/03/22 14:01:28;;;;;;;31.93;17.67;;;;;;;;;;4406123;32;419588;-87
2023/03/22 14:03:58;;;;;;;12.27;9.33;;;;;;;;;;4407915;32;319389;-86
2023/03/22 14:06:28;;;;;;;17.63;9.33;;;;;;;;;;4418776;32;317533;-87
2023/03/22 14:09:00;;;;;;;15.57;9.57;;;;;;;;;;4409491;32;318187;-86
2023/03/22 14:11:34;;;;;;;11.87;7.20;;;;;;;;;;4419324;32;318127;-90
2023/03/22 14:14:05;;;;;;;29.63;16.27;;;;;;;;;;4407966;32;318314;-86
2023/03/22 14:16:38;;;;;;;31.00;17.40;;;;;;;;;;4418998;32;319399;-86
2023/03/22 14:19:07;;;;;;;14.70;9.50;;;;;;;;;;4408305;32;319072;-86
2023/03/22 14:21:39;;;;;;;11.60;8.83;;;;;;;;;;4418353;32;318401;-89
2023/03/22 14:24:08;;;;;;;14.47;9.00;;;;;;;;;;4408485;32;318311;-87
2023/03/22 14:26:37;;;;;;;18.37;7.30;;;;;;;;;;4417337;32;340652;-88
2023/03/22 14:29:08;;;;;;;9.53;6.90;;;;;;;;;;4409082;32;335794;-88
2023/03/22 14:31:35;;;;;;;8.80;7.50;;;;;;;;;;4421111;32;317146;-89
2023/03/22 14:34:05;;;;;;;9.43;7.60;;;;;;;;;;4410141;32;317110;-89
2023/03/22 14:36:38;;;;;;;13.67;8.53;;;;;;;;;;4420270;32;316530;-87